Terminal Aerodrome Forecast
Issued by NWS Los Angeles, CA

Home | Current Version | Previous Version | Text Only | Print | Product List | Glossary On
Versions: 1 2 3 4 5 6 7 8 9 10 11 12 13 14 15 16 17 18 19 20 21 22 23 24 25 26
000
FTUS46 KLOX 210200 AAA
TAFSMX
TAF AMD
KSMX 210239Z 2103/2124 30007KT P6SM BKN012
     FM210700 VRB03KT 6SM BR OVC007
     FM210900 00000KT 3SM BR OVC003
     FM211600 VRB03KT 5SM BR BKN007
     FM211800 30007KT P6SM SKC
     FM212000 30012KT P6SM SKC=

USA.gov is the U.S. government's official web portal to all federal, state and local government web resources and services.